Portada
Imágenes satélite Pronóstico 15 díasClimaPredicción Marítima Ciclones Rayo AeropuertosFAQ Noticias Acerca
El tiempo : Europa África América del Norte América del Sur Asia Australia-Oceanía Otros
Idiomas Contacto

Chichén Itzá, México

latitud: 20-38-30N, longitud: 088-26-58W, altitud: 31 m


METAR: MMCT 312043Z 02008KT 8SM SCT020TCU BKN200 28/20 A2992 RMK 8/208 MSGTX MMMD
TAF: falta

Hora: 15:17 (21:17 UTC)

Observación

El informe se hizo hace 34 minutos, a las 20:43 UTC
Viento 8 kt del norte-noreste
Temperatura 28°C
Humedad 62%
Presión 1013 hPa
Visibilidad: 12.9 km
Nubes dispersas a una altura de 2000 ft, Cumulus congestus.
Cielo nuboso a una altura de 20000 ft

Cambiar las unidades
La información que se ofrece en estas páginas está sujeta a una cláusula de exención de responsabilidad
El tiempo : Europa África América del Norte América del Sur Asia Australia-Oceanía Otros
Imágenes satélite Pronóstico 15 díasClimaPredicción Marítima Ciclones Rayo AeropuertosFAQ Idiomas Contacto Noticias Acerca